Scottish Airport Reports

Civil airfields updated at H+20 and H+50
RAF airfields updated at H+50 only

EGPD - Aberdeen
Distance from station: NNE 19mi, 31km
Updated: 27/01/2022 04:50
Few Clouds
Few Clouds
 Wind from WNW
Wind: WNW 20 mph , 31 km/h
Temperature: 7°C
Wind Chill: 3°C
Dew Point: 1°C
Humidity: 66%
Barometer: 1013 hPa
Clouds: Few Clouds
Visibility: 6 miles , 10 km
Cloud details: Few Clouds 3300 ft
2022/01/27 04:50 EGPD 270450Z AUTO 29017KT 9999 FEW033 07/01 Q1013 NOSIG
EGPN - Dundee
Distance from station: SW 41mi, 66km
Updated: 26/01/2022 20:50
NOT Current
Partly cloudy
Partly cloudy
 Wind from W
Wind: W 24 mph , 39 km/h
Temperature: 10°C
Wind Chill: 6°C
Dew Point: 8°C
Humidity: 88%
Barometer: 1010 hPa
Clouds: Partly cloudy
Visibility: 6 miles , 10 km
Cloud details: Partly cloudy 1600 ft
Partly cloudy 3500 ft
2022/01/26 20:50 EGPN 262050Z 26021KT 9999 SCT016 SCT035 10/08 Q1010
 
EGQS - RAF Lossiemouth
Distance from station: NNW 63mi, 102km
Updated: 27/01/2022 04:50
Partly cloudy
Partly cloudy
 Wind from W
Wind: W 22 mph , 35 km/h
Temperature: 6°C
Wind Chill: 1°C
Dew Point: 2°C
Humidity: 76%
Barometer: 1014 hPa
Clouds: Partly cloudy
Visibility: 6 miles , 10 km
Cloud details: Partly cloudy 4000 ft
2022/01/27 04:50 EGQS 270450Z 27019KT 9999 SCT040 06/02 Q1014 RMK BLU
EGPE - Inverness
Distance from station: WNW 73mi, 117km
Updated: 27/01/2022 04:50
Nearby showers, Partly cloudy
Nearby showers, Partly cloudy
 Wind from WSW
Wind: WSW 16 mph , 26 km/h
Temperature: 6°C
Wind Chill: 2°C
Dew Point: 2°C
Humidity: 76%
Barometer: 1015 hPa
Summary: Nearby Showers
Clouds: Partly cloudy
Visibility: 6 miles , 10 km
Cloud details: Partly cloudy 3100 ft
2022/01/27 04:50 EGPE 270450Z 24014KT 9999 VCSH SCT031 06/02 Q1015
 
EGPH - Edinburgh
Distance from station: SSW 77mi, 125km
Updated: 27/01/2022 04:50
Overcast
Overcast
 Wind from W
Wind: W 13 mph , 20 km/h
Temperature: 8°C
Wind Chill: 4°C
Dew Point: 4°C
Humidity: 76%
Barometer: 1017 hPa
Clouds: Overcast
Visibility: 6 miles , 10 km
Cloud details: Overcast 2700 ft
2022/01/27 04:50 EGPH 270450Z 26011KT 9999 OVC027 08/04 Q1017
EGPC - Wick
Distance from station: NNW 107mi, 172km
Updated: 27/01/2022 04:50
Mostly cloudy
Mostly cloudy
 Wind from WNW
Wind: WNW 35 mph , 56 km/h, Gust: 46 mph , 74 km/h
Temperature: 4°C
Wind Chill: -3°C
Dew Point: 2°C
Humidity: 87%
Barometer: 1011 hPa
Clouds: Mostly cloudy
Visibility: 6 miles , 10 km
Cloud details: Few Clouds 1700 ft
Partly cloudy 2400 ft
Mostly cloudy 3800 ft
2022/01/27 04:50 EGPC 270450Z AUTO 30030G40KT 9999 FEW017/// SCT024/// BKN038/// 04/02 Q1011 RERA
 
EGPF - Glasgow
Distance from station: SW 107mi, 172km
Updated: 27/01/2022 04:50
Few Clouds
Few Clouds
 Wind from W
Wind: W 16 mph , 26 km/h
Temperature: 8°C
Wind Chill: 4°C
Dew Point: 4°C
Humidity: 76%
Barometer: 1019 hPa
Clouds: Few Clouds
Visibility: 6 miles , 10 km
Cloud details: Few Clouds 3000 ft
2022/01/27 04:50 EGPF 270450Z AUTO 28014KT 9999 FEW030 08/04 Q1019
EGPK - Prestwick
Distance from station: SW 130mi, 209km
Updated: 27/01/2022 04:50
Partly cloudy
Partly cloudy
 Wind from W
Wind: W 12 mph , 19 km/h
Temperature: 8°C
Wind Chill: 4°C
Dew Point: 4°C
Humidity: 76%
Barometer: 1020 hPa
Clouds: Partly cloudy
Visibility: 6 miles , 10 km
Cloud details: Few Clouds 2000 ft
Partly cloudy 4100 ft
2022/01/27 04:50 EGPK 270450Z 26010KT 9999 FEW020 SCT041 08/04 Q1020
 
EGPA - Kirkwall, Orkney
Distance from station: N 140mi, 225km
Updated: 27/01/2022 04:50
Partly cloudy
Partly cloudy
 Wind from WNW
Wind: WNW 24 mph , 39 km/h
Temperature: 6°C
Wind Chill: 1°C
Dew Point: 1°C
Humidity: 71%
Barometer: 1010 hPa
Clouds: Partly cloudy
Visibility: 6 miles , 10 km
Cloud details: Partly cloudy 3900 ft
2022/01/27 04:50 EGPA 270450Z AUTO 30021KT 9999 SCT039/// 06/01 Q1010
EGPO - Stornoway, Outer Hebrides
Distance from station: WNW 169mi, 273km
Updated: 27/01/2022 04:50
Partly cloudy
Partly cloudy
 Wind from W
Wind: W 21 mph , 33 km/h, Gust: 33 mph , 54 km/h
Temperature: 5°C
Wind Chill: 0°C
Dew Point: 2°C
Humidity: 81%
Barometer: 1016 hPa
Clouds: Partly cloudy
Visibility: 6 miles , 10 km
Cloud details: Few Clouds 1900 ft
Partly cloudy 3200 ft
2022/01/27 04:50 EGPO 270450Z AUTO 28018G29KT 9999 FEW019/// SCT032/// 05/02 Q1016
 
EGPI - Islay, Inner Hebrides
Distance from station: WSW 172mi, 276km
Updated: 27/01/2022 04:50
Mostly cloudy
Mostly cloudy
 Wind from WNW
Wind: WNW 20 mph , 31 km/h
Temperature: 8°C
Wind Chill: 3°C
Dew Point: 5°C
Humidity: 82%
Barometer: 1021 hPa
Clouds: Mostly cloudy
Visibility: 6 miles , 10 km
Cloud details: Few Clouds 3000 ft
Mostly cloudy 3600 ft
2022/01/27 04:50 EGPI 270450Z AUTO 29017KT 9999 FEW030/// BKN036/// 08/05 Q1021
EGPU - Tiree, Inner Hebrides
Distance from station: W 172mi, 276km
Updated: 27/01/2022 04:50
Light rain, Mostly cloudy
Light rain, Mostly cloudy
 Wind from WNW
Wind: WNW 22 mph , 35 km/h
Temperature: 7°C
Wind Chill: 3°C
Dew Point: 6°C
Humidity: 93%
Barometer: 1019 hPa
Summary: Light rain
Clouds: Mostly cloudy
Visibility: 4 miles , 7 km
Cloud details: Few Clouds 1500 ft
Mostly cloudy 3000 ft
2022/01/27 04:50 EGPU 270450Z AUTO 30019KT 7000 -RA FEW015/// BKN030/// 07/06 Q1019
 
EGPB - Sumburgh, Shetland
Distance from station: NNE 208mi, 332km
Updated: 27/01/2022 04:50
Light rain, Overcast
Light rain, Overcast
 Wind from NW
Wind: NW 36 mph , 57 km/h, Gust: 51 mph , 81 km/h
Temperature: 5°C
Wind Chill: -2°C
Dew Point: 2°C
Humidity: 81%
Barometer: 1005 hPa
Summary: Light rain
Clouds: Overcast
Visibility: 6 miles , 9 km
Cloud details: Mostly cloudy 1400 ft
Overcast 2700 ft
2022/01/27 04:50 EGPB 270450Z AUTO 31031G44KT 9000 -RA BKN014/// OVC027/// 05/02 Q1005 RERA
-->